createdAt,value
2023-02-08T00:00:05.677Z,26.92
2023-02-08T00:02:32.271Z,26.48
2023-02-08T00:04:58.779Z,25.60
2023-02-08T00:07:25.687Z,26.13
2023-02-08T00:09:52.202Z,26.42
2023-02-08T00:12:18.790Z,25.00
2023-02-08T00:14:45.307Z,24.98
2023-02-08T00:17:11.833Z,24.38
2023-02-08T00:19:38.397Z,24.58
2023-02-08T00:22:05.215Z,24.50
2023-02-08T00:24:31.799Z,25.48
2023-02-08T00:26:58.303Z,24.85
2023-02-08T00:29:24.823Z,23.80
2023-02-08T00:31:51.365Z,24.63
2023-02-08T00:34:17.949Z,23.25
2023-02-08T00:36:44.466Z,22.48
2023-02-08T00:39:10.980Z,22.33
2023-02-08T00:41:37.514Z,24.30
2023-02-08T00:44:04.242Z,24.20
2023-02-08T00:46:30.922Z,24.67
2023-02-08T00:48:57.602Z,23.67
2023-02-08T00:51:24.192Z,24.73
2023-02-08T00:53:50.746Z,23.60
2023-02-08T00:56:17.817Z,22.83
2023-02-08T00:58:44.616Z,23.02
2023-02-08T01:01:11.797Z,23.98
2023-02-08T01:03:40.616Z,23.30
2023-02-08T01:06:10.051Z,23.38
2023-02-08T01:08:37.149Z,22.60
2023-02-08T01:11:10.848Z,23.13
2023-02-08T01:13:38.089Z,23.35
2023-02-08T01:16:12.043Z,21.67
2023-02-08T01:18:40.104Z,22.25
2023-02-08T01:21:08.955Z,22.75
2023-02-08T01:23:35.746Z,22.20
2023-02-08T01:26:02.694Z,21.45
2023-02-08T01:28:29.294Z,22.98
2023-02-08T01:30:55.925Z,22.67
2023-02-08T01:33:22.514Z,22.02
2023-02-08T01:35:53.325Z,22.10
2023-02-08T01:38:20.524Z,22.35
2023-02-08T01:40:47.231Z,21.88
2023-02-08T01:43:24.982Z,20.23
2023-02-08T01:45:52.478Z,20.83
2023-02-08T01:48:28.716Z,21.30
2023-02-08T01:51:03.968Z,20.52
2023-02-08T01:53:33.159Z,20.83
2023-02-08T01:56:02.383Z,20.65
2023-02-08T01:58:31.949Z,21.48
2023-02-08T02:00:58.619Z,20.42
2023-02-08T02:03:25.412Z,20.63
2023-02-08T02:06:02.898Z,21.40
2023-02-08T02:08:30.334Z,20.05
2023-02-08T02:10:56.872Z,20.83
2023-02-08T02:13:26.189Z,20.33
2023-02-08T02:15:52.964Z,21.55
2023-02-08T02:18:26.032Z,21.00
2023-02-08T02:21:12.285Z,19.80
2023-02-08T02:24:09.915Z,20.70
2023-02-08T02:26:51.090Z,19.65
2023-02-08T02:31:59.982Z,18.88
2023-02-08T02:34:48.009Z,20.30
2023-02-08T02:37:32.734Z,19.88
2023-02-08T02:40:18.202Z,19.45
2023-02-08T02:43:24.308Z,18.15
2023-02-08T02:46:29.148Z,18.98
2023-02-08T02:49:33.701Z,19.05
2023-02-08T02:52:10.243Z,18.88
2023-02-08T02:54:41.962Z,19.48
2023-02-08T02:57:12.447Z,19.05
2023-02-08T02:59:39.491Z,18.92
2023-02-08T03:02:06.064Z,20.42
2023-02-08T03:04:32.597Z,18.85
2023-02-08T03:07:21.228Z,20.20
2023-02-08T03:10:18.915Z,19.42
2023-02-08T03:12:48.204Z,20.40
2023-02-08T03:15:28.937Z,18.05
2023-02-08T03:18:04.552Z,18.77
2023-02-08T03:20:38.672Z,19.02
2023-02-08T03:23:21.501Z,19.40
2023-02-08T03:26:04.885Z,18.20
2023-02-08T03:28:56.794Z,19.48
2023-02-08T03:31:33.054Z,20.67
2023-02-08T03:34:08.596Z,19.30
2023-02-08T03:36:40.710Z,18.65
2023-02-08T03:39:13.556Z,19.17
2023-02-08T03:41:44.471Z,18.15
2023-02-08T03:44:17.729Z,21.33
2023-02-08T03:46:51.985Z,18.67
2023-02-08T03:49:22.810Z,18.08
2023-02-08T03:51:52.122Z,18.08
2023-02-08T03:54:23.417Z,17.55
2023-02-08T03:56:59.493Z,17.50
2023-02-08T03:59:30.705Z,19.27
2023-02-08T04:02:03.306Z,18.63
2023-02-08T04:04:36.467Z,18.75
2023-02-08T04:07:03.098Z,18.48
2023-02-08T04:09:29.662Z,18.23
2023-02-08T04:11:56.238Z,18.98
2023-02-08T04:14:22.830Z,23.98
2023-02-08T04:16:49.436Z,18.58
2023-02-08T04:19:15.943Z,17.85
2023-02-08T04:21:42.476Z,17.98
2023-02-08T04:24:09.250Z,17.55
2023-02-08T04:26:35.905Z,17.20
2023-02-08T04:29:02.463Z,18.40
2023-02-08T04:31:29.212Z,16.83
2023-02-08T04:33:55.864Z,18.77
2023-02-08T04:36:22.533Z,18.73
2023-02-08T04:38:49.196Z,17.58
2023-02-08T04:41:15.769Z,19.00
2023-02-08T04:43:42.363Z,19.77
2023-02-08T04:46:08.963Z,20.40
2023-02-08T04:48:35.488Z,19.17
2023-02-08T04:51:02.101Z,20.65
2023-02-08T04:53:28.697Z,20.98
2023-02-08T04:55:55.258Z,18.58
2023-02-08T04:58:22.710Z,20.67
2023-02-08T05:00:49.282Z,19.70
2023-02-08T05:03:15.882Z,18.17
2023-02-08T05:05:42.478Z,21.08
2023-02-08T05:08:09.033Z,20.83
2023-02-08T05:10:35.561Z,21.42
2023-02-08T05:13:02.115Z,18.45
2023-02-08T05:15:28.711Z,22.02
2023-02-08T05:17:55.204Z,20.50
2023-02-08T05:20:21.816Z,20.90
2023-02-08T05:22:48.394Z,20.05
2023-02-08T05:25:14.991Z,20.00
2023-02-08T05:27:41.495Z,21.88
2023-02-08T05:30:08.523Z,20.27
2023-02-08T05:32:35.121Z,19.23
2023-02-08T05:35:01.664Z,18.50
2023-02-08T05:37:28.251Z,19.73
2023-02-08T05:39:54.793Z,20.40
2023-02-08T05:42:21.462Z,19.67
2023-02-08T05:44:48.050Z,20.83
2023-02-08T05:47:14.676Z,21.35
2023-02-08T05:49:41.289Z,21.08
2023-02-08T05:52:07.927Z,23.88
2023-02-08T05:54:34.429Z,21.25
2023-02-08T05:57:01.025Z,20.17
2023-02-08T05:59:27.644Z,19.00
2023-02-08T06:01:54.191Z,22.40
2023-02-08T06:04:20.827Z,19.38
2023-02-08T06:06:47.609Z,18.92
2023-02-08T06:09:14.143Z,18.85
2023-02-08T06:11:40.715Z,20.05
2023-02-08T06:14:07.261Z,21.27
2023-02-08T06:16:33.912Z,22.63
2023-02-08T06:19:00.633Z,20.17
2023-02-08T06:21:28.138Z,18.33
2023-02-08T06:23:54.659Z,20.00
2023-02-08T06:26:21.206Z,19.70
2023-02-08T06:28:47.726Z,21.73
2023-02-08T06:31:14.288Z,18.77
2023-02-08T06:33:40.847Z,18.15
2023-02-08T06:36:07.680Z,19.98
2023-02-08T06:38:34.428Z,20.27
2023-02-08T06:41:00.960Z,18.45
2023-02-08T06:43:27.535Z,19.02
2023-02-08T06:45:54.128Z,19.35
2023-02-08T06:48:20.672Z,20.38
2023-02-08T06:50:47.372Z,17.88
2023-02-08T06:53:14.766Z,20.65
2023-02-08T06:55:41.872Z,20.25
2023-02-08T06:58:08.474Z,17.85
2023-02-08T07:00:34.987Z,17.85
2023-02-08T07:03:01.563Z,20.58
2023-02-08T07:05:28.196Z,18.48
2023-02-08T07:07:54.782Z,19.42
2023-02-08T07:10:21.363Z,19.98
2023-02-08T07:12:47.888Z,19.70
2023-02-08T07:15:14.586Z,18.38
2023-02-08T07:17:41.220Z,18.38
2023-02-08T07:20:08.490Z,19.55
2023-02-08T07:22:35.124Z,18.85
2023-02-08T07:25:01.657Z,18.92
2023-02-08T07:27:28.267Z,17.98
2023-02-08T07:29:54.785Z,17.48
2023-02-08T07:32:21.463Z,18.38
2023-02-08T07:34:48.007Z,18.70
2023-02-08T07:37:14.600Z,17.52
2023-02-08T07:39:41.224Z,17.98
2023-02-08T07:42:09.528Z,17.58
2023-02-08T07:44:39.340Z,18.02
2023-02-08T07:47:07.276Z,17.65
2023-02-08T07:49:33.850Z,17.50
2023-02-08T07:52:01.398Z,18.13
2023-02-08T07:54:28.821Z,17.45
2023-02-08T07:56:56.062Z,17.48
2023-02-08T07:59:22.707Z,17.38
2023-02-08T08:01:49.426Z,18.05
2023-02-08T08:04:16.273Z,18.42
2023-02-08T08:06:42.885Z,17.15
2023-02-08T08:09:09.417Z,18.77
2023-02-08T08:11:35.970Z,18.90
2023-02-08T08:14:02.508Z,17.92
2023-02-08T08:16:29.137Z,19.05
2023-02-08T08:18:55.798Z,20.70
2023-02-08T08:21:22.297Z,19.65
2023-02-08T08:23:48.864Z,19.85
2023-02-08T08:26:17.492Z,20.15
2023-02-08T08:28:46.560Z,21.42
2023-02-08T08:31:16.805Z,20.17
2023-02-08T08:33:43.522Z,18.93
2023-02-08T08:36:10.154Z,22.83
2023-02-08T08:38:38.593Z,22.10
2023-02-08T08:41:14.666Z,20.02
2023-02-08T08:43:41.397Z,20.25
2023-02-08T08:46:09.248Z,21.10
2023-02-08T08:48:38.314Z,22.88
2023-02-08T08:51:05.442Z,22.08
2023-02-08T08:53:32.144Z,20.20
2023-02-08T08:55:58.813Z,20.35
2023-02-08T08:58:25.421Z,21.45
2023-02-08T09:00:52.068Z,23.23
2023-02-08T09:03:18.590Z,22.23
2023-02-08T09:05:47.087Z,20.77
2023-02-08T09:08:13.839Z,21.67
2023-02-08T09:10:40.923Z,21.25
2023-02-08T09:13:08.244Z,20.88
2023-02-08T09:15:38.122Z,21.20
2023-02-08T09:18:04.748Z,20.50
2023-02-08T09:20:31.248Z,22.60
2023-02-08T09:22:57.979Z,22.48
2023-02-08T09:25:24.850Z,21.08
2023-02-08T09:27:51.374Z,24.38
2023-02-08T09:30:17.945Z,22.70
2023-02-08T09:32:44.499Z,24.20
2023-02-08T09:35:13.238Z,21.48
2023-02-08T09:37:39.762Z,21.60
2023-02-08T09:40:06.725Z,22.67
2023-02-08T09:42:43.474Z,22.02
2023-02-08T09:45:36.570Z,21.02
2023-02-08T09:48:11.923Z,23.58
2023-02-08T09:50:44.655Z,22.50
2023-02-08T09:53:21.451Z,21.48
2023-02-08T09:56:00.039Z,21.33
2023-02-08T09:58:39.511Z,21.80
2023-02-08T10:01:23.741Z,23.10
2023-02-08T10:03:53.276Z,23.60
2023-02-08T10:06:21.029Z,21.85
2023-02-08T10:08:50.704Z,22.38
2023-02-08T10:11:24.946Z,23.40
2023-02-08T10:14:07.681Z,22.98
2023-02-08T10:17:05.942Z,22.90
2023-02-08T10:19:49.848Z,22.58
2023-02-08T10:22:38.737Z,22.10
2023-02-08T10:25:42.806Z,22.27
2023-02-08T10:28:34.287Z,21.23
2023-02-08T10:31:00.963Z,23.05
2023-02-08T10:33:50.972Z,22.00
2023-02-08T10:36:22.088Z,23.20
2023-02-08T10:41:23.093Z,23.58
2023-02-08T10:44:02.695Z,22.17
2023-02-08T10:46:44.004Z,22.90
2023-02-08T10:49:40.901Z,21.92
2023-02-08T10:52:07.522Z,23.38
2023-02-08T10:54:35.079Z,23.30
2023-02-08T10:57:04.850Z,21.52
2023-02-08T10:59:36.650Z,23.33
2023-02-08T11:02:11.271Z,21.40
2023-02-08T11:05:07.640Z,21.38
2023-02-08T11:07:36.601Z,22.58
2023-02-08T11:10:18.744Z,20.85
2023-02-08T11:12:57.301Z,21.45
2023-02-08T11:15:43.455Z,22.35
2023-02-08T11:18:23.782Z,21.27
2023-02-08T11:20:54.568Z,21.50
2023-02-08T11:23:25.535Z,22.00
2023-02-08T11:25:53.229Z,21.38
2023-02-08T11:28:29.824Z,21.58
2023-02-08T11:30:59.602Z,20.33
2023-02-08T11:33:27.691Z,21.88
2023-02-08T11:36:06.864Z,22.77
2023-02-08T11:38:36.477Z,22.95
2023-02-08T11:41:05.768Z,21.08
2023-02-08T11:43:34.919Z,21.70
2023-02-08T11:46:04.719Z,23.15
2023-02-08T11:48:49.325Z,22.42
2023-02-08T11:51:36.217Z,21.52
2023-02-08T11:54:04.504Z,20.88
2023-02-08T11:56:33.981Z,24.60
2023-02-08T11:59:21.117Z,20.13
2023-02-08T12:01:47.818Z,21.45
2023-02-08T12:04:16.826Z,22.83
2023-02-08T12:07:11.014Z,21.27
2023-02-08T12:10:06.466Z,20.80
2023-02-08T12:12:54.126Z,22.63
2023-02-08T12:15:51.362Z,21.02
2023-02-08T12:18:40.704Z,20.52
2023-02-08T12:21:16.104Z,22.95
2023-02-08T12:23:49.694Z,20.58
2023-02-08T12:26:34.755Z,20.60
2023-02-08T12:29:20.223Z,22.35
2023-02-08T12:32:06.374Z,21.88
2023-02-08T12:34:51.174Z,21.58
2023-02-08T12:37:42.125Z,22.38
2023-02-08T12:40:36.690Z,21.73
2023-02-08T12:43:30.360Z,22.75
2023-02-08T12:46:13.353Z,20.55
2023-02-08T12:49:17.406Z,22.13
2023-02-08T12:51:59.689Z,20.98
2023-02-08T12:54:46.613Z,23.75
2023-02-08T12:57:17.558Z,21.50
2023-02-08T12:59:58.547Z,22.33
2023-02-08T13:02:44.852Z,21.10
2023-02-08T13:05:18.894Z,22.27
2023-02-08T13:07:48.118Z,21.17
2023-02-08T13:10:26.358Z,21.27
2023-02-08T13:12:57.095Z,23.50
2023-02-08T13:15:38.606Z,22.25
2023-02-08T13:18:29.932Z,21.73
2023-02-08T13:23:52.506Z,22.15
2023-02-08T13:26:21.599Z,20.35
2023-02-08T13:28:51.030Z,20.35
2023-02-08T13:31:23.551Z,21.38
2023-02-08T13:34:01.962Z,20.83
2023-02-08T13:36:35.770Z,20.73
2023-02-08T13:39:05.957Z,20.00
2023-02-08T13:41:33.919Z,19.70
2023-02-08T13:44:08.444Z,20.95
2023-02-08T13:46:43.658Z,23.25
2023-02-08T13:49:48.878Z,22.77
2023-02-08T13:52:47.029Z,20.60
2023-02-08T13:55:41.108Z,21.38
2023-02-08T13:58:13.686Z,21.02
2023-02-08T14:00:56.210Z,21.95
2023-02-08T14:03:27.240Z,21.98
2023-02-08T14:11:18.142Z,20.40
2023-02-08T14:13:59.295Z,19.73
2023-02-08T14:19:06.197Z,20.85
2023-02-08T14:21:34.859Z,21.48
2023-02-08T14:24:04.826Z,22.15
2023-02-08T14:26:32.298Z,21.45
2023-02-08T14:29:02.114Z,20.90
2023-02-08T14:31:43.027Z,22.55
2023-02-08T14:34:34.374Z,21.63
2023-02-08T14:37:10.662Z,21.23
2023-02-08T14:39:37.394Z,20.52
2023-02-08T14:42:09.869Z,20.50
2023-02-08T14:44:41.411Z,20.92
2023-02-08T14:47:26.993Z,21.48
2023-02-08T14:50:18.685Z,20.48
2023-02-08T14:53:14.611Z,22.60
2023-02-08T14:55:48.655Z,20.80
2023-02-08T14:58:27.017Z,20.67
2023-02-08T15:00:54.951Z,22.17
2023-02-08T15:03:23.221Z,22.20
2023-02-08T15:06:21.575Z,21.52
2023-02-08T15:08:55.496Z,22.40
2023-02-08T15:11:28.872Z,21.20
2023-02-08T15:14:01.088Z,21.30
2023-02-08T15:16:40.346Z,21.08
2023-02-08T15:19:09.261Z,21.45
2023-02-08T15:21:40.999Z,23.30
2023-02-08T15:24:16.263Z,22.73
2023-02-08T15:26:48.366Z,22.23
2023-02-08T15:29:39.206Z,23.25
2023-02-08T15:32:17.018Z,22.88
2023-02-08T15:34:53.055Z,23.25
2023-02-08T15:37:20.446Z,22.30
2023-02-08T15:39:53.422Z,21.90
2023-02-08T15:42:29.499Z,22.55
2023-02-08T15:44:56.553Z,21.05
2023-02-08T15:47:26.201Z,24.52
2023-02-08T15:49:55.332Z,22.92
2023-02-08T15:52:24.976Z,21.17
2023-02-08T15:54:51.804Z,24.38
2023-02-08T15:57:40.641Z,24.73
2023-02-08T16:00:14.021Z,21.33
2023-02-08T16:02:42.228Z,22.45
2023-02-08T16:05:20.156Z,23.08
2023-02-08T16:07:47.541Z,21.70
2023-02-08T16:10:25.184Z,22.10
2023-02-08T16:13:17.665Z,21.67
2023-02-08T16:15:47.442Z,22.00
2023-02-08T16:18:35.889Z,22.40
2023-02-08T16:21:05.430Z,22.67
2023-02-08T16:23:33.856Z,22.45
2023-02-08T16:26:21.965Z,23.35
2023-02-08T16:28:54.229Z,23.08
2023-02-08T16:31:29.928Z,22.52
2023-02-08T16:34:00.443Z,23.83
2023-02-08T16:36:32.641Z,24.67
2023-02-08T16:39:22.481Z,23.85
2023-02-08T16:42:06.424Z,22.90
2023-02-08T16:45:09.135Z,22.60
2023-02-08T16:47:50.596Z,23.88
2023-02-08T16:50:27.626Z,23.13
2023-02-08T16:53:00.105Z,22.33
2023-02-08T16:55:29.744Z,23.67
2023-02-08T16:57:58.305Z,32.30
2023-02-08T17:00:28.554Z,25.17
2023-02-08T17:02:56.357Z,25.75
2023-02-08T17:05:26.147Z,23.10
2023-02-08T17:07:53.080Z,24.02
2023-02-08T17:10:31.360Z,25.60
2023-02-08T17:13:18.870Z,26.70
2023-02-08T17:15:48.796Z,25.30
2023-02-08T17:18:15.567Z,24.48
2023-02-08T17:20:42.760Z,21.25
2023-02-08T17:23:10.094Z,23.05
2023-02-08T17:25:36.967Z,24.15
2023-02-08T17:28:11.494Z,23.13
2023-02-08T17:30:41.238Z,22.52
2023-02-08T17:33:17.552Z,24.30
2023-02-08T17:35:49.585Z,24.08
2023-02-08T17:38:17.475Z,25.38
2023-02-08T17:40:44.398Z,25.80
2023-02-08T17:43:12.415Z,24.15
2023-02-08T17:45:40.200Z,23.20
2023-02-08T17:48:07.134Z,22.98
2023-02-08T17:50:34.285Z,30.50
2023-02-08T17:53:01.041Z,22.23
2023-02-08T17:55:27.598Z,24.13
2023-02-08T17:57:54.151Z,27.25
2023-02-08T18:00:23.603Z,23.00
2023-02-08T18:02:52.616Z,23.15
2023-02-08T18:05:27.193Z,23.48
2023-02-08T18:07:55.645Z,23.15
2023-02-08T18:10:23.970Z,24.80
2023-02-08T18:12:50.737Z,22.48
2023-02-08T18:15:20.738Z,23.60
2023-02-08T18:17:48.081Z,25.13
2023-02-08T18:20:15.249Z,23.23
2023-02-08T18:22:43.029Z,22.67
2023-02-08T18:25:10.848Z,24.17
2023-02-08T18:27:37.505Z,24.05
2023-02-08T18:30:04.472Z,33.30
2023-02-08T18:32:31.142Z,57.00
2023-02-08T18:34:58.612Z,26.27
2023-02-08T18:37:25.310Z,23.10
2023-02-08T18:39:52.162Z,25.02
2023-02-08T18:42:18.796Z,25.00
2023-02-08T18:44:45.515Z,22.98
2023-02-08T18:47:12.071Z,24.45
2023-02-08T18:49:40.796Z,25.83
2023-02-08T18:52:09.445Z,26.38
2023-02-08T18:54:37.869Z,26.00
2023-02-08T18:57:06.068Z,24.02
2023-02-08T18:59:33.436Z,24.35
2023-02-08T19:02:01.570Z,25.73
2023-02-08T19:04:28.706Z,26.63
2023-02-08T19:06:55.277Z,26.10
2023-02-08T19:09:21.848Z,28.65
2023-02-08T19:11:48.810Z,34.38
2023-02-08T19:14:15.783Z,29.70
2023-02-08T19:16:43.069Z,30.80
2023-02-08T19:19:10.346Z,29.50
2023-02-08T19:21:37.041Z,28.13
2023-02-08T19:24:03.850Z,26.75
2023-02-08T19:26:33.729Z,25.45
2023-02-08T19:29:03.120Z,24.85
2023-02-08T19:31:30.632Z,28.05
2023-02-08T19:33:59.096Z,23.63
2023-02-08T19:36:32.613Z,25.05
2023-02-08T19:38:59.923Z,27.10
2023-02-08T19:41:31.061Z,38.45
2023-02-08T19:43:57.650Z,29.50
2023-02-08T19:46:27.392Z,30.10
2023-02-08T19:48:56.860Z,28.05
2023-02-08T19:51:23.402Z,30.02
2023-02-08T19:53:50.164Z,30.35
2023-02-08T19:56:18.491Z,25.92
2023-02-08T19:58:46.566Z,26.08
2023-02-08T20:01:22.180Z,27.80
2023-02-08T20:03:50.170Z,26.88
2023-02-08T20:06:25.149Z,26.55
2023-02-08T20:08:51.909Z,24.70
2023-02-08T20:11:21.161Z,26.35
2023-02-08T20:13:48.106Z,33.97
2023-02-08T20:16:15.228Z,39.30
2023-02-08T20:18:42.054Z,26.13
2023-02-08T20:21:08.595Z,27.90
2023-02-08T20:23:35.607Z,27.77
2023-02-08T20:26:17.220Z,25.73
2023-02-08T20:28:46.759Z,25.55
2023-02-08T20:31:17.053Z,26.48
2023-02-08T20:33:43.858Z,25.77
2023-02-08T20:36:22.340Z,24.92
2023-02-08T20:38:49.056Z,25.15
2023-02-08T20:41:16.482Z,27.92
2023-02-08T20:43:44.577Z,26.25
2023-02-08T20:46:18.327Z,27.25
2023-02-08T20:48:45.221Z,27.42
2023-02-08T20:51:15.034Z,26.25
2023-02-08T20:53:43.748Z,33.80
2023-02-08T20:56:16.303Z,37.22
2023-02-08T20:58:43.000Z,27.40
2023-02-08T21:01:13.440Z,25.60
2023-02-08T21:03:40.398Z,26.38
2023-02-08T21:06:14.159Z,28.08
2023-02-08T21:08:41.036Z,25.73
2023-02-08T21:11:08.801Z,26.25
2023-02-08T21:13:35.865Z,26.40
2023-02-08T21:16:07.206Z,28.00
2023-02-08T21:18:33.838Z,26.23
2023-02-08T21:21:03.668Z,26.30
2023-02-08T21:23:30.439Z,28.58
2023-02-08T21:26:01.799Z,26.63
2023-02-08T21:28:28.554Z,29.50
2023-02-08T21:31:10.894Z,27.73
2023-02-08T21:33:37.554Z,27.05
2023-02-08T21:36:06.853Z,27.77
2023-02-08T21:38:33.442Z,28.55
2023-02-08T21:41:05.114Z,27.45
2023-02-08T21:43:31.644Z,28.63
2023-02-08T21:46:03.136Z,27.33
2023-02-08T21:48:29.758Z,27.63
2023-02-08T21:51:18.960Z,26.17
2023-02-08T21:54:04.187Z,31.23
2023-02-08T21:56:30.823Z,27.48
2023-02-08T21:58:57.408Z,28.75
2023-02-08T22:01:23.977Z,27.35
2023-02-08T22:03:50.517Z,25.92
2023-02-08T22:06:17.114Z,28.50
2023-02-08T22:08:43.643Z,27.50
2023-02-08T22:11:10.196Z,27.85
2023-02-08T22:13:36.836Z,29.70
2023-02-08T22:16:07.818Z,27.65
2023-02-08T22:21:04.321Z,28.00
2023-02-08T22:23:30.884Z,27.38
2023-02-08T22:25:57.435Z,26.58
2023-02-08T22:28:24.206Z,26.67
2023-02-08T22:30:51.001Z,26.58
2023-02-08T22:33:17.607Z,27.67
2023-02-08T22:35:44.166Z,27.55
2023-02-08T22:38:10.701Z,24.98
2023-02-08T22:40:37.239Z,26.65
2023-02-08T22:43:03.831Z,27.88
2023-02-08T22:45:30.414Z,27.52
2023-02-08T22:47:56.957Z,27.00
2023-02-08T22:50:23.503Z,26.75
2023-02-08T22:52:50.148Z,27.42
2023-02-08T22:55:16.778Z,27.35
2023-02-08T22:57:43.447Z,28.33
2023-02-08T23:00:12.874Z,30.65
2023-02-08T23:02:39.418Z,30.15
2023-02-08T23:05:06.592Z,27.42
2023-02-08T23:07:33.238Z,29.75
2023-02-08T23:09:59.775Z,29.77
2023-02-08T23:12:26.355Z,29.27
2023-02-08T23:14:52.979Z,30.38
2023-02-08T23:17:19.503Z,27.35
2023-02-08T23:19:46.127Z,28.85
2023-02-08T23:22:13.134Z,28.35
2023-02-08T23:24:39.680Z,27.58
2023-02-08T23:27:06.323Z,31.45
2023-02-08T23:29:33.079Z,29.27
2023-02-08T23:31:59.714Z,30.02
2023-02-08T23:34:27.036Z,29.60
2023-02-08T23:36:53.554Z,28.80
2023-02-08T23:39:20.118Z,28.90
2023-02-08T23:41:46.691Z,30.60
2023-02-08T23:44:13.338Z,29.17
2023-02-08T23:46:39.938Z,30.08
2023-02-08T23:49:06.503Z,28.40
2023-02-08T23:51:33.206Z,29.77
2023-02-08T23:53:59.785Z,29.02
2023-02-08T23:56:29.396Z,30.17
2023-02-08T23:58:58.271Z,28.35
